Time;durP1;ratioP1;P1;durP2;ratioP2;P2;SDS_P1;SDS_P2;PMS_P1;PMS_P2;Temp;Humidity;BMP_temperature;BMP_pressure;BME280_temperature;BME280_humidity;BME280_pressure;Samples;Min_cycle;Max_cycle;Signal;HPM_P1;HPM_P2
2023/01/24 00:01:15;;;;;;;0.40;0.40;;;12.70;59.90;;;;;;5002020;28;20029;-88
2023/01/24 00:03:41;;;;;;;0.30;0.30;;;12.90;59.60;;;;;;5017279;28;20025;-86
2023/01/24 00:06:12;;;;;;;0.30;0.30;;;13.00;59.10;;;;;;5016799;28;20501;-86
2023/01/24 00:08:38;;;;;;;0.20;0.20;;;12.70;59.30;;;;;;5016744;28;20042;-87
2023/01/24 00:11:06;;;;;;;0.20;0.20;;;12.20;60.90;;;;;;5013489;28;20099;-87
2023/01/24 00:13:33;;;;;;;0.25;0.25;;;11.90;61.60;;;;;;5000583;28;20121;-88
2023/01/24 00:16:28;;;;;;;0.25;0.25;;;12.10;61.70;;;;;;5000989;28;20449;-88
2023/01/24 00:18:54;;;;;;;0.20;0.20;;;12.30;61.70;;;;;;4984380;28;20018;-86
2023/01/24 00:21:22;;;;;;;0.30;0.30;;;12.20;60.80;;;;;;5000367;28;20033;-87
2023/01/24 00:23:50;;;;;;;0.20;0.20;;;11.70;63.10;;;;;;5019924;28;20084;-85
2023/01/24 00:26:18;;;;;;;0.30;0.30;;;11.60;63.50;;;;;;5012478;28;20376;-85
2023/01/24 00:28:44;;;;;;;0.30;0.30;;;11.80;62.80;;;;;;5000510;28;20153;-88
2023/01/24 00:31:10;;;;;;;0.30;0.30;;;12.00;62.10;;;;;;5000621;28;20045;-86
2023/01/24 00:33:36;;;;;;;0.30;0.30;;;12.10;62.70;;;;;;5000046;28;20014;-86
2023/01/24 00:36:02;;;;;;;0.30;0.30;;;12.30;61.10;;;;;;4994832;28;20109;-86
2023/01/24 00:38:30;;;;;;;0.30;0.30;;;12.60;60.20;;;;;;5015311;28;20047;-87
2023/01/24 00:40:56;;;;;;;0.30;0.30;;;12.90;59.30;;;;;;5020213;28;20064;-90
2023/01/24 00:43:22;;;;;;;0.20;0.20;;;13.00;59.20;;;;;;5019805;28;20017;-86
2023/01/24 00:45:49;;;;;;;0.28;0.28;;;13.10;59.00;;;;;;5016069;28;20041;-87
2023/01/24 00:48:15;;;;;;;0.30;0.30;;;13.20;58.80;;;;;;5000121;28;20017;-87
2023/01/24 00:50:41;;;;;;;0.32;0.32;;;12.80;59.20;;;;;;5000081;28;20029;-86
2023/01/24 00:53:06;;;;;;;0.30;0.30;;;12.50;60.70;;;;;;4999769;28;20037;-87
2023/01/24 00:55:32;;;;;;;0.30;0.30;;;12.20;61.30;;;;;;4999550;28;20040;-86
2023/01/24 00:57:58;;;;;;;0.20;0.20;;;12.30;61.60;;;;;;5000021;28;20026;-88
2023/01/24 01:00:24;;;;;;;0.25;0.25;;;12.00;62.10;;;;;;5015925;28;20025;-86
2023/01/24 01:02:50;;;;;;;0.30;0.30;;;12.10;62.00;;;;;;4999667;28;20033;-87
2023/01/24 01:05:17;;;;;;;0.30;0.30;;;12.40;61.40;;;;;;4998253;28;20021;-88
2023/01/24 01:07:43;;;;;;;0.30;0.30;;;12.60;59.70;;;;;;5000078;28;20080;-87
2023/01/24 01:10:09;;;;;;;0.35;0.35;;;12.40;60.80;;;;;;4999779;28;20022;-90
2023/01/24 01:12:35;;;;;;;0.30;0.30;;;12.50;60.50;;;;;;5013335;28;20120;-87
2023/01/24 01:15:01;;;;;;;0.30;0.30;;;12.60;60.20;;;;;;5018965;28;20100;-87
2023/01/24 01:17:27;;;;;;;0.40;0.40;;;13.00;59.00;;;;;;5019136;28;20021;-86
2023/01/24 01:19:53;;;;;;;0.30;0.30;;;13.10;58.40;;;;;;5018914;28;20017;-86
2023/01/24 01:22:19;;;;;;;0.30;0.30;;;13.20;58.50;;;;;;5012573;28;20384;-86
2023/01/24 01:24:45;;;;;;;0.20;0.20;;;13.40;58.00;;;;;;5015183;28;20051;-86
2023/01/24 01:27:11;;;;;;;0.20;0.20;;;13.30;58.50;;;;;;5016029;28;20034;-86
2023/01/24 01:29:37;;;;;;;0.30;0.30;;;13.00;57.50;;;;;;5015813;28;20069;-88
2023/01/24 01:32:08;;;;;;;0.20;0.20;;;12.70;58.70;;;;;;5015362;28;20036;-87
2023/01/24 01:34:34;;;;;;;0.35;0.35;;;12.60;59.70;;;;;;5015751;28;20490;-86
2023/01/24 01:37:00;;;;;;;0.40;0.40;;;12.70;58.70;;;;;;5015476;28;20029;-86
2023/01/24 01:39:27;;;;;;;0.20;0.20;;;12.80;59.00;;;;;;5010170;28;20033;-86
2023/01/24 01:41:53;;;;;;;0.32;0.32;;;13.00;58.80;;;;;;4998580;28;20041;-87
2023/01/24 01:44:38;;;;;;;0.30;0.30;;;12.70;59.90;;;;;;4998992;28;20060;-89
2023/01/24 01:47:30;;;;;;;0.30;0.30;;;12.60;60.30;;;;;;4999252;28;20137;-87
2023/01/24 01:50:27;;;;;;;0.30;0.30;;;12.80;59.30;;;;;;5006348;28;20026;-86
2023/01/24 01:52:53;;;;;;;0.25;0.25;;;12.80;59.70;;;;;;5015043;28;20025;-89
2023/01/24 01:55:23;;;;;;;0.40;0.40;;;12.80;60.20;;;;;;5015754;28;20408;-89
2023/01/24 01:57:51;;;;;;;0.40;0.40;;;12.80;59.90;;;;;;5015222;28;20022;-88
2023/01/24 02:00:23;;;;;;;0.28;0.28;;;12.90;59.30;;;;;;5014041;28;20038;-87
2023/01/24 02:05:58;;;;;;;0.30;0.30;;;12.90;60.30;;;;;;4996392;28;20104;-88
2023/01/24 02:08:24;;;;;;;0.30;0.30;;;13.00;58.70;;;;;;4995854;28;20037;-86
2023/01/24 02:13:39;;;;;;;0.30;0.30;;;12.80;59.70;;;;;;5016264;28;20040;-87
2023/01/24 02:16:06;;;;;;;0.30;0.30;;;12.60;59.90;;;;;;4997993;28;20022;-86
2023/01/24 02:18:41;;;;;;;0.20;0.20;;;12.40;60.80;;;;;;4997844;28;20022;-86
2023/01/24 02:21:16;;;;;;;0.40;0.40;;;12.30;61.20;;;;;;4998510;28;20149;-86
2023/01/24 02:23:51;;;;;;;0.30;0.30;;;12.40;60.90;;;;;;5017527;28;20040;-86
2023/01/24 02:26:25;;;;;;;0.20;0.20;;;12.50;61.10;;;;;;5014439;28;20113;-87
2023/01/24 02:29:10;;;;;;;0.30;0.30;;;12.80;60.20;;;;;;5001855;28;20044;-86
2023/01/24 02:32:00;;;;;;;0.22;0.22;;;12.70;60.00;;;;;;5018181;28;20085;-87
2023/01/24 02:34:26;;;;;;;0.30;0.30;;;12.40;60.60;;;;;;5017847;28;20025;-87
2023/01/24 02:37:02;;;;;;;0.30;0.30;;;12.30;61.20;;;;;;5017538;28;20021;-86
2023/01/24 02:39:54;;;;;;;0.25;0.25;;;12.60;60.10;;;;;;5009331;28;20025;-86
2023/01/24 02:42:32;;;;;;;0.30;0.30;;;12.90;59.40;;;;;;5014401;28;20069;-87
2023/01/24 02:45:02;;;;;;;0.30;0.30;;;13.00;58.60;;;;;;5013877;28;20022;-89
2023/01/24 02:47:32;;;;;;;0.40;0.40;;;13.00;57.80;;;;;;4997643;28;20076;-86
2023/01/24 02:50:06;;;;;;;0.20;0.20;;;12.60;59.80;;;;;;5023375;28;20094;-87
2023/01/24 02:55:16;;;;;;;0.22;0.22;;;12.40;59.50;;;;;;5015684;28;20040;-88
2023/01/24 03:00:26;;;;;;;0.30;0.30;;;12.50;59.70;;;;;;5030718;28;20052;-89
2023/01/24 03:02:52;;;;;;;0.28;0.28;;;12.40;58.90;;;;;;5017115;28;20022;-87
2023/01/24 03:05:18;;;;;;;0.22;0.22;;;12.50;59.00;;;;;;5016896;28;20079;-87
2023/01/24 03:07:45;;;;;;;0.30;0.30;;;12.30;60.40;;;;;;5016927;28;20420;-87
2023/01/24 03:10:12;;;;;;;0.20;0.20;;;12.50;59.70;;;;;;5016547;28;20024;-86
2023/01/24 03:34:48;;;;;;;0.30;0.30;;;12.50;59.00;;;;;;5014600;28;20060;-87
2023/01/24 03:37:16;;;;;;;0.30;0.30;;;12.50;58.80;;;;;;5013199;28;20022;-88
2023/01/24 03:39:58;;;;;;;0.30;0.30;;;12.50;58.80;;;;;;5013726;28;20021;-86
2023/01/24 03:42:25;;;;;;;0.30;0.30;;;12.70;58.50;;;;;;5013011;28;20014;-87
2023/01/24 03:44:51;;;;;;;0.30;0.30;;;12.70;58.50;;;;;;5007120;28;20017;-87
2023/01/24 03:47:17;;;;;;;0.22;0.22;;;12.70;58.30;;;;;;4996726;28;20381;-86
2023/01/24 03:52:29;;;;;;;0.40;0.40;;;12.70;58.50;;;;;;5014658;28;20072;-87
2023/01/24 03:54:59;;;;;;;0.40;0.40;;;12.60;58.30;;;;;;4996475;28;20346;-87
2023/01/24 03:57:27;;;;;;;0.35;0.35;;;12.50;58.10;;;;;;4995971;28;20022;-88
2023/01/24 03:59:52;;;;;;;0.30;0.30;;;12.60;58.00;;;;;;4977558;28;20030;-87
2023/01/24 04:02:19;;;;;;;0.30;0.30;;;12.40;58.20;;;;;;4993565;28;20030;-88
2023/01/24 04:07:30;;;;;;;0.40;0.40;;;12.50;58.00;;;;;;5015005;28;20041;-87
2023/01/24 04:09:57;;;;;;;0.40;0.40;;;12.50;58.10;;;;;;5016113;28;20063;-86
2023/01/24 04:12:24;;;;;;;0.30;0.30;;;12.70;57.90;;;;;;4998831;28;20022;-89
2023/01/24 04:14:49;;;;;;;0.30;0.30;;;12.80;57.80;;;;;;4996331;28;20381;-88
2023/01/24 04:17:15;;;;;;;0.30;0.30;;;12.80;57.50;;;;;;4996719;28;20021;-90
2023/01/24 04:19:40;;;;;;;0.30;0.30;;;12.80;57.50;;;;;;5001601;28;20013;-87
2023/01/24 04:22:06;;;;;;;0.25;0.25;;;12.70;57.80;;;;;;5015954;28;20040;-89
2023/01/24 04:24:32;;;;;;;0.22;0.22;;;12.70;57.90;;;;;;5016651;28;20017;-87
2023/01/24 04:26:57;;;;;;;0.30;0.30;;;12.80;57.70;;;;;;5016011;28;20030;-87
2023/01/24 04:29:23;;;;;;;0.20;0.20;;;12.80;57.60;;;;;;4997783;28;20032;-87
2023/01/24 04:31:49;;;;;;;0.25;0.25;;;12.80;57.50;;;;;;4996216;28;20076;-86
2023/01/24 04:34:15;;;;;;;0.30;0.30;;;12.80;57.50;;;;;;4996655;28;20360;-90
2023/01/24 04:36:40;;;;;;;0.20;0.20;;;12.90;57.30;;;;;;5005749;28;20029;-87
2023/01/24 04:39:06;;;;;;;0.30;0.30;;;12.90;57.00;;;;;;5016388;28;20410;-89
2023/01/24 04:41:32;;;;;;;0.32;0.32;;;12.90;57.30;;;;;;5019900;28;20022;-87
2023/01/24 04:43:57;;;;;;;0.30;0.30;;;12.90;57.30;;;;;;5011941;28;20025;-87
2023/01/24 04:46:23;;;;;;;0.20;0.20;;;12.90;57.10;;;;;;4996537;28;20038;-89
2023/01/24 04:48:49;;;;;;;0.30;0.30;;;12.60;58.40;;;;;;4996991;28;20022;-87
2023/01/24 04:51:15;;;;;;;0.30;0.30;;;12.70;58.40;;;;;;4996604;28;20033;-87
2023/01/24 04:53:42;;;;;;;0.32;0.32;;;12.70;58.00;;;;;;4997924;28;20018;-86
2023/01/24 04:56:08;;;;;;;0.30;0.30;;;12.90;57.80;;;;;;5020320;28;20033;-87
2023/01/24 04:58:34;;;;;;;0.30;0.30;;;12.80;57.20;;;;;;5019242;28;20032;-89
2023/01/24 05:01:00;;;;;;;0.32;0.32;;;12.60;58.00;;;;;;5019297;28;20431;-88
2023/01/24 05:03:27;;;;;;;0.30;0.30;;;12.70;57.80;;;;;;5017816;28;20052;-87
2023/01/24 05:05:53;;;;;;;0.20;0.20;;;12.80;57.80;;;;;;5016036;28;20123;-88
2023/01/24 05:08:20;;;;;;;0.38;0.38;;;12.80;57.80;;;;;;5016829;28;20028;-87
2023/01/24 05:10:46;;;;;;;0.30;0.30;;;12.90;57.40;;;;;;4999488;28;20113;-87
2023/01/24 05:13:25;;;;;;;0.38;0.38;;;12.80;57.30;;;;;;5015619;28;20025;-87
2023/01/24 05:15:51;;;;;;;0.30;0.30;;;12.80;57.50;;;;;;5008536;28;20022;-87
2023/01/24 05:18:17;;;;;;;0.20;0.20;;;12.70;57.60;;;;;;4999413;28;20026;-86
2023/01/24 05:20:43;;;;;;;0.30;0.30;;;12.70;57.60;;;;;;4999429;28;20022;-88
2023/01/24 05:23:09;;;;;;;0.20;0.20;;;12.80;57.80;;;;;;4999564;28;20042;-89
2023/01/24 05:25:35;;;;;;;0.30;0.30;;;12.70;57.60;;;;;;4999209;28;20029;-87
2023/01/24 05:28:01;;;;;;;0.20;0.20;;;12.60;58.20;;;;;;4999002;28;20049;-87
2023/01/24 05:30:26;;;;;;;0.30;0.30;;;12.60;57.70;;;;;;4989396;28;20023;-86
2023/01/24 05:32:58;;;;;;;0.20;0.20;;;12.40;57.70;;;;;;4979448;28;20026;-86
2023/01/24 05:35:24;;;;;;;0.30;0.30;;;12.40;57.80;;;;;;4979982;28;20385;-87
2023/01/24 05:37:50;;;;;;;0.30;0.30;;;12.20;57.80;;;;;;4979417;28;20080;-88
2023/01/24 05:40:16;;;;;;;0.30;0.30;;;12.20;58.20;;;;;;4986702;28;20056;-88
2023/01/24 05:42:43;;;;;;;0.30;0.30;;;12.20;58.40;;;;;;4998843;28;20121;-86
2023/01/24 05:45:09;;;;;;;0.30;0.30;;;12.20;58.30;;;;;;4998548;28;20358;-85
2023/01/24 05:47:35;;;;;;;0.30;0.30;;;12.20;58.40;;;;;;4998073;28;20105;-85
2023/01/24 05:50:01;;;;;;;0.30;0.30;;;12.20;58.20;;;;;;4998601;28;20120;-84
2023/01/24 05:52:27;;;;;;;0.30;0.30;;;12.30;58.20;;;;;;4997827;28;20018;-86
2023/01/24 05:54:53;;;;;;;0.30;0.30;;;12.30;58.20;;;;;;4998058;28;20096;-86
2023/01/24 05:57:19;;;;;;;0.30;0.30;;;12.40;58.00;;;;;;4998381;28;20030;-86
2023/01/24 05:59:45;;;;;;;0.40;0.40;;;12.50;57.90;;;;;;5014691;28;20025;-86
2023/01/24 06:02:11;;;;;;;0.30;0.30;;;12.60;57.70;;;;;;4998687;28;20045;-86
2023/01/24 06:04:36;;;;;;;0.25;0.25;;;12.40;58.30;;;;;;4998452;28;20108;-85
2023/01/24 06:07:02;;;;;;;0.30;0.30;;;12.40;58.40;;;;;;5014510;28;20033;-85
2023/01/24 06:09:28;;;;;;;0.28;0.28;;;12.40;58.40;;;;;;4998112;28;20379;-86
2023/01/24 06:11:54;;;;;;;0.30;0.30;;;12.40;57.80;;;;;;4999106;28;20057;-86
2023/01/24 06:14:20;;;;;;;0.20;0.20;;;12.40;57.10;;;;;;4998199;28;20487;-86
2023/01/24 06:16:47;;;;;;;0.25;0.25;;;12.20;57.70;;;;;;4982471;28;20138;-88
2023/01/24 06:19:14;;;;;;;0.30;0.30;;;12.30;57.80;;;;;;4997888;28;20026;-86
2023/01/24 06:22:00;;;;;;;0.30;0.30;;;12.30;57.60;;;;;;5001210;28;20037;-90
2023/01/24 06:24:27;;;;;;;0.30;0.30;;;12.30;58.10;;;;;;5017510;28;20022;-84
2023/01/24 06:26:53;;;;;;;0.30;0.30;;;12.20;57.80;;;;;;5017048;28;20056;-88
2023/01/24 06:29:21;;;;;;;0.30;0.30;;;11.90;58.50;;;;;;5018018;28;20036;-84
2023/01/24 06:31:50;;;;;;;0.20;0.20;;;11.90;58.50;;;;;;5017429;28;20017;-88
2023/01/24 06:34:34;;;;;;;0.40;0.40;;;11.90;59.40;;;;;;5017845;28;20018;-86
2023/01/24 06:37:04;;;;;;;0.20;0.20;;;12.00;59.00;;;;;;5014450;28;20026;-85
2023/01/24 06:39:30;;;;;;;0.30;0.30;;;11.90;59.40;;;;;;5014822;28;20396;-85
2023/01/24 06:41:56;;;;;;;0.20;0.20;;;11.70;60.50;;;;;;4998293;28;20068;-86
2023/01/24 06:44:22;;;;;;;0.28;0.28;;;11.60;60.20;;;;;;4997955;28;20072;-86
2023/01/24 06:46:48;;;;;;;0.30;0.30;;;11.40;59.70;;;;;;4995701;28;20033;-85
2023/01/24 06:49:14;;;;;;;0.30;0.30;;;11.20;61.60;;;;;;5001578;28;20025;-86
2023/01/24 06:51:40;;;;;;;0.20;0.20;;;11.20;61.40;;;;;;5017059;28;20045;-88
2023/01/24 06:54:07;;;;;;;0.30;0.30;;;11.50;60.70;;;;;;5017591;28;20021;-85
2023/01/24 06:56:32;;;;;;;0.28;0.28;;;11.80;60.10;;;;;;5017203;28;20467;-87
2023/01/24 06:58:58;;;;;;;0.20;0.20;;;12.10;59.60;;;;;;5000798;28;20125;-87
2023/01/24 07:01:24;;;;;;;0.20;0.20;;;12.10;59.60;;;;;;5013557;28;20079;-86
2023/01/24 07:03:49;;;;;;;0.25;0.25;;;12.20;59.90;;;;;;4996352;28;20076;-87
2023/01/24 07:06:15;;;;;;;0.20;0.20;;;12.10;59.50;;;;;;4996913;28;20108;-85
2023/01/24 07:08:41;;;;;;;0.30;0.30;;;11.80;60.00;;;;;;4997078;28;20036;-88
2023/01/24 07:11:07;;;;;;;0.30;0.30;;;12.00;60.20;;;;;;4997468;28;20022;-86
2023/01/24 07:13:32;;;;;;;0.30;0.30;;;12.30;59.70;;;;;;4997072;28;20022;-87
2023/01/24 07:16:02;;;;;;;0.30;0.30;;;12.30;59.80;;;;;;4997209;28;20022;-88
2023/01/24 07:18:28;;;;;;;0.30;0.30;;;12.30;60.30;;;;;;4997052;28;20056;-85
2023/01/24 07:20:53;;;;;;;0.30;0.30;;;12.50;59.80;;;;;;5013920;28;20025;-85
2023/01/24 07:23:32;;;;;;;0.20;0.20;;;12.50;59.60;;;;;;5015802;28;20195;-87
2023/01/24 07:25:58;;;;;;;0.30;0.30;;;12.60;59.30;;;;;;5032964;28;20132;-88
2023/01/24 07:28:24;;;;;;;0.30;0.30;;;12.50;59.20;;;;;;5033137;28;20457;-87
2023/01/24 07:30:52;;;;;;;0.38;0.38;;;12.50;59.60;;;;;;5016590;28;20067;-86
2023/01/24 07:33:18;;;;;;;0.20;0.20;;;12.50;59.70;;;;;;5032150;28;20053;-89
2023/01/24 07:35:44;;;;;;;0.20;0.20;;;12.50;59.50;;;;;;5029208;28;20041;-86
2023/01/24 07:38:11;;;;;;;0.30;0.30;;;12.50;59.70;;;;;;5012810;28;20026;-86
2023/01/24 07:40:38;;;;;;;0.20;0.20;;;12.50;59.70;;;;;;5016086;28;20021;-87
2023/01/24 07:43:04;;;;;;;0.30;0.30;;;12.60;59.70;;;;;;5016565;28;20036;-87
2023/01/24 07:45:31;;;;;;;0.30;0.30;;;12.80;59.40;;;;;;5016004;28;20033;-88
2023/01/24 07:47:58;;;;;;;0.30;0.30;;;13.10;58.80;;;;;;5016007;28;20045;-87
2023/01/24 07:50:25;;;;;;;0.30;0.30;;;13.10;58.50;;;;;;5012890;28;20022;-86
2023/01/24 07:52:54;;;;;;;0.30;0.30;;;12.90;58.90;;;;;;5012780;28;20380;-88
2023/01/24 07:55:21;;;;;;;0.30;0.30;;;12.80;59.30;;;;;;5016182;28;20368;-88
2023/01/24 07:57:47;;;;;;;0.20;0.20;;;12.70;59.30;;;;;;5028274;28;20041;-88
2023/01/24 08:00:13;;;;;;;0.40;0.40;;;12.60;59.70;;;;;;5017659;28;20033;-88
2023/01/24 08:02:43;;;;;;;0.30;0.30;;;12.50;59.60;;;;;;5015977;28;20018;-88
2023/01/24 08:05:09;;;;;;;0.38;0.38;;;12.60;60.10;;;;;;5023283;28;20029;-88
2023/01/24 08:07:36;;;;;;;0.28;0.28;;;12.70;60.00;;;;;;5016108;28;20039;-88
2023/01/24 08:10:05;;;;;;;0.30;0.30;;;12.90;59.80;;;;;;5016019;28;20024;-87
2023/01/24 08:12:31;;;;;;;0.20;0.20;;;13.20;59.20;;;;;;5012730;28;20026;-87
2023/01/24 08:14:56;;;;;;;0.32;0.32;;;13.30;59.30;;;;;;5025264;28;20014;-88
2023/01/24 08:17:22;;;;;;;0.30;0.30;;;13.60;58.60;;;;;;5015796;28;20021;-86
2023/01/24 08:19:48;;;;;;;0.25;0.25;;;13.70;58.90;;;;;;5016573;28;20025;-86
2023/01/24 08:22:13;;;;;;;0.30;0.30;;;13.90;58.50;;;;;;5017054;28;20038;-86
2023/01/24 08:24:39;;;;;;;0.30;0.30;;;14.10;58.20;;;;;;5016965;28;20397;-88
2023/01/24 08:27:05;;;;;;;0.20;0.20;;;14.40;57.40;;;;;;5019523;28;20120;-88
2023/01/24 08:29:31;;;;;;;0.20;0.20;;;14.50;57.40;;;;;;5014760;28;20021;-89
2023/01/24 08:31:58;;;;;;;0.30;0.30;;;14.30;57.20;;;;;;5036172;28;20079;-87
2023/01/24 08:34:24;;;;;;;0.30;0.30;;;14.10;58.20;;;;;;5035918;28;20391;-85
2023/01/24 08:36:50;;;;;;;0.25;0.25;;;14.40;58.00;;;;;;5036034;28;20021;-87
2023/01/24 08:39:15;;;;;;;0.40;0.40;;;14.60;57.70;;;;;;5035809;28;20345;-88
2023/01/24 08:41:46;;;;;;;0.28;0.28;;;14.70;57.20;;;;;;5035686;28;20338;-88
2023/01/24 08:44:13;;;;;;;0.30;0.30;;;14.70;57.20;;;;;;5035872;28;20009;-88
2023/01/24 08:46:38;;;;;;;0.20;0.20;;;14.80;57.00;;;;;;5035618;28;20475;-88
2023/01/24 08:49:04;;;;;;;0.30;0.30;;;14.50;56.90;;;;;;5035566;28;20507;-87
2023/01/24 08:51:30;;;;;;;0.30;0.30;;;14.20;57.80;;;;;;5035481;28;20033;-87
2023/01/24 08:53:56;;;;;;;0.30;0.30;;;14.00;58.40;;;;;;5019066;28;20029;-88
2023/01/24 08:56:22;;;;;;;0.40;0.40;;;14.30;58.30;;;;;;5035525;28;20510;-88
2023/01/24 08:58:48;;;;;;;0.20;0.20;;;14.10;58.60;;;;;;5035550;28;20407;-87
2023/01/24 09:01:14;;;;;;;0.30;0.30;;;14.00;58.40;;;;;;5018796;28;20108;-87
2023/01/24 09:03:40;;;;;;;0.30;0.30;;;14.20;58.40;;;;;;5035810;28;20368;-87
2023/01/24 09:06:06;;;;;;;0.30;0.30;;;14.40;57.80;;;;;;5035345;28;20461;-88
2023/01/24 09:08:32;;;;;;;0.20;0.20;;;14.60;57.80;;;;;;5035473;28;20372;-88
2023/01/24 09:10:59;;;;;;;0.20;0.20;;;14.80;57.10;;;;;;5035402;28;20029;-88
2023/01/24 09:13:25;;;;;;;0.20;0.20;;;15.00;56.70;;;;;;5035257;28;20021;-88
2023/01/24 09:15:51;;;;;;;0.25;0.25;;;15.00;56.90;;;;;;5035109;28;20052;-88
2023/01/24 09:18:16;;;;;;;0.20;0.20;;;14.80;57.20;;;;;;5034958;28;20025;-88
2023/01/24 09:20:43;;;;;;;0.30;0.30;;;15.00;57.40;;;;;;5035221;28;20025;-88
2023/01/24 09:23:11;;;;;;;0.30;0.30;;;15.10;56.90;;;;;;5034824;28;20132;-88
2023/01/24 09:25:37;;;;;;;0.30;0.30;;;15.40;56.80;;;;;;5033980;28;20025;-88
2023/01/24 09:28:03;;;;;;;0.43;0.43;;;15.50;56.40;;;;;;5034978;28;20140;-88
2023/01/24 09:30:29;;;;;;;0.20;0.20;;;15.40;56.60;;;;;;5018564;28;20052;-89
2023/01/24 09:32:54;;;;;;;0.30;0.30;;;15.80;55.90;;;;;;5034712;28;20373;-87
2023/01/24 09:35:20;;;;;;;0.40;0.40;;;16.40;55.30;;;;;;5034809;28;20053;-88
2023/01/24 09:37:46;;;;;;;0.30;0.30;;;17.00;55.00;;;;;;5035708;28;20049;-87
2023/01/24 09:40:21;;;;;;;0.30;0.30;;;18.00;53.40;;;;;;5034684;28;20021;-88
2023/01/24 09:43:15;;;;;;;0.30;0.30;;;19.10;52.10;;;;;;5034970;28;20417;-90
2023/01/24 09:46:15;;;;;;;0.40;0.40;;;20.60;50.70;;;;;;4974577;28;20482;-89
2023/01/24 09:48:42;;;;;;;0.40;0.40;;;22.30;47.30;;;;;;4958595;28;20074;-90
2023/01/24 09:51:19;;;;;;;0.30;0.30;;;23.20;45.90;;;;;;4974934;28;20097;-87
2023/01/24 09:53:52;;;;;;;0.40;0.40;;;24.30;45.30;;;;;;4975015;28;20370;-88
2023/01/24 09:56:26;;;;;;;0.32;0.32;;;24.90;45.20;;;;;;4974913;28;20030;-88
2023/01/24 09:59:18;;;;;;;0.32;0.32;;;25.50;44.10;;;;;;4974765;28;20018;-89
2023/01/24 10:01:46;;;;;;;0.40;0.40;;;25.60;43.30;;;;;;4974872;28;20061;-89
2023/01/24 10:04:31;;;;;;;0.40;0.40;;;25.80;42.60;;;;;;4974830;28;20030;-90
2023/01/24 10:07:14;;;;;;;0.40;0.40;;;25.90;43.20;;;;;;4974852;28;20039;-89
2023/01/24 10:10:03;;;;;;;0.40;0.40;;;25.80;42.40;;;;;;4974440;28;20474;-87
2023/01/24 10:12:32;;;;;;;0.45;0.45;;;25.60;42.00;;;;;;4935997;28;20360;-89
2023/01/24 10:15:32;;;;;;;0.40;0.40;;;25.50;41.90;;;;;;4920001;29;20118;-89
2023/01/24 10:18:04;;;;;;;0.40;0.40;;;25.70;41.90;;;;;;4955174;29;20059;-87
2023/01/24 10:20:41;;;;;;;0.30;0.30;;;25.60;41.70;;;;;;4939191;29;20035;-89
2023/01/24 10:23:10;;;;;;;0.40;0.40;;;25.30;41.80;;;;;;4926727;29;20431;-88
2023/01/24 10:25:49;;;;;;;0.40;0.40;;;25.00;42.30;;;;;;4935560;29;20031;-89
2023/01/24 10:28:25;;;;;;;0.30;0.30;;;24.70;43.20;;;;;;4951738;29;20137;-89
2023/01/24 10:30:58;;;;;;;0.35;0.35;;;24.40;44.30;;;;;;4935443;29;20430;-89
2023/01/24 10:33:30;;;;;;;0.30;0.30;;;24.30;45.00;;;;;;4935888;29;20107;-89
2023/01/24 10:36:16;;;;;;;0.30;0.30;;;24.00;44.50;;;;;;4935569;29;20087;-88
2023/01/24 10:38:43;;;;;;;0.30;0.30;;;24.10;44.40;;;;;;4919820;29;20479;-89
2023/01/24 10:41:21;;;;;;;0.40;0.40;;;24.60;43.90;;;;;;4935532;29;20134;-89
2023/01/24 10:43:59;;;;;;;0.38;0.38;;;25.10;43.20;;;;;;4935522;29;20028;-88
2023/01/24 10:46:52;;;;;;;0.20;0.20;;;25.30;42.60;;;;;;4935761;29;20036;-89
2023/01/24 10:49:25;;;;;;;0.40;0.40;;;24.60;42.80;;;;;;4962385;28;20034;-89
2023/01/24 10:52:11;;;;;;;0.30;0.30;;;23.70;43.10;;;;;;4973578;28;20031;-88
2023/01/24 10:54:57;;;;;;;0.25;0.25;;;23.00;43.90;;;;;;4987410;28;20387;-89
2023/01/24 10:57:41;;;;;;;0.40;0.40;;;22.40;44.60;;;;;;5013582;28;20018;-89
2023/01/24 11:00:26;;;;;;;0.40;0.40;;;22.30;45.10;;;;;;5013557;28;20025;-89
2023/01/24 11:02:56;;;;;;;0.40;0.40;;;22.40;44.50;;;;;;5013721;28;20018;-89
2023/01/24 11:05:23;;;;;;;0.40;0.40;;;22.50;44.30;;;;;;5014511;28;20021;-87
2023/01/24 11:08:00;;;;;;;0.40;0.40;;;22.80;44.90;;;;;;5013651;28;20180;-86
2023/01/24 11:10:30;;;;;;;0.30;0.30;;;23.20;43.80;;;;;;5013352;28;20089;-89
2023/01/24 11:12:58;;;;;;;0.40;0.40;;;23.20;44.10;;;;;;5013232;28;20022;-89
2023/01/24 11:15:33;;;;;;;0.40;0.40;;;23.60;43.90;;;;;;5013303;28;20022;-88
2023/01/24 11:18:20;;;;;;;0.30;0.30;;;24.20;43.50;;;;;;5013078;28;20372;-89
2023/01/24 11:20:46;;;;;;;0.40;0.40;;;24.50;42.90;;;;;;5013568;28;20026;-89
2023/01/24 11:23:16;;;;;;;0.30;0.30;;;24.30;42.50;;;;;;5025153;28;20046;-90
2023/01/24 11:25:53;;;;;;;;;;;24.00;43.40;;;;;;5029833;28;20032;-88
2023/01/24 11:28:32;;;;;;;0.30;0.30;;;23.60;43.70;;;;;;5013200;28;19901;-88
2023/01/24 11:31:14;;;;;;;0.30;0.30;;;22.70;44.80;;;;;;5029346;28;20021;-88
2023/01/24 11:33:54;;;;;;;0.40;0.40;;;21.80;45.60;;;;;;5029463;28;20098;-89
2023/01/24 11:36:20;;;;;;;0.35;0.35;;;20.90;46.00;;;;;;5029671;28;20083;-89
2023/01/24 11:38:46;;;;;;;0.28;0.28;;;20.30;47.00;;;;;;5029242;28;20116;-89
2023/01/24 11:41:19;;;;;;;0.30;0.30;;;20.00;47.40;;;;;;5029200;28;20026;-88
2023/01/24 11:43:54;;;;;;;0.20;0.20;;;19.50;47.60;;;;;;5029231;28;20014;-88
2023/01/24 11:46:40;;;;;;;0.40;0.40;;;19.30;48.30;;;;;;5029344;28;20034;-88
2023/01/24 11:49:34;;;;;;;0.25;0.25;;;19.00;48.30;;;;;;5027870;28;20377;-88
2023/01/24 11:52:03;;;;;;;0.25;0.25;;;18.50;49.20;;;;;;5029325;28;20068;-89
2023/01/24 11:54:37;;;;;;;0.30;0.30;;;18.10;50.00;;;;;;5029325;28;20113;-88
2023/01/24 11:57:17;;;;;;;0.22;0.22;;;18.10;50.10;;;;;;5028945;28;20117;-87
2023/01/24 11:59:54;;;;;;;0.20;0.20;;;17.90;50.30;;;;;;5029249;28;20606;-88
2023/01/24 12:02:54;;;;;;;0.30;0.30;;;17.90;49.90;;;;;;5029166;28;20037;-88
2023/01/24 12:05:48;;;;;;;0.28;0.28;;;17.90;50.00;;;;;;5029043;28;20164;-88
2023/01/24 12:08:50;;;;;;;0.30;0.30;;;17.90;49.70;;;;;;5029455;28;20037;-87
2023/01/24 12:11:37;;;;;;;0.22;0.22;;;17.90;49.40;;;;;;4953510;29;20031;-88
2023/01/24 12:14:09;;;;;;;0.32;0.32;;;17.80;50.20;;;;;;4953504;29;20031;-88
2023/01/24 12:17:05;;;;;;;0.40;0.40;;;17.80;50.40;;;;;;4953839;29;20191;-87
2023/01/24 12:19:52;;;;;;;0.22;0.22;;;17.90;50.40;;;;;;4954297;29;20119;-88
2023/01/24 12:22:22;;;;;;;0.30;0.30;;;18.00;50.00;;;;;;4952894;29;20083;-88
2023/01/24 12:25:03;;;;;;;0.40;0.40;;;17.90;50.40;;;;;;4953208;29;20127;-88
2023/01/24 12:27:34;;;;;;;0.30;0.30;;;17.80;50.50;;;;;;4953177;29;20035;-88
2023/01/24 12:30:06;;;;;;;0.20;0.20;;;17.70;50.50;;;;;;4953459;29;20035;-88
2023/01/24 12:33:09;;;;;;;0.30;0.30;;;17.70;50.70;;;;;;4953316;29;20031;-88
2023/01/24 12:35:41;;;;;;;0.35;0.35;;;17.80;51.00;;;;;;4934349;29;20208;-87
2023/01/24 12:38:38;;;;;;;0.30;0.30;;;17.80;50.90;;;;;;4934055;29;20034;-89
2023/01/24 12:41:11;;;;;;;0.28;0.28;;;17.70;50.80;;;;;;4934291;29;20032;-87
2023/01/24 12:44:05;;;;;;;0.20;0.20;;;17.80;51.40;;;;;;4934243;29;20019;-89
2023/01/24 12:46:39;;;;;;;0.30;0.30;;;17.90;51.10;;;;;;4933892;29;20044;-88
2023/01/24 12:49:23;;;;;;;0.20;0.20;;;18.00;50.40;;;;;;4949686;29;20027;-88
2023/01/24 12:51:59;;;;;;;0.25;0.25;;;18.10;49.20;;;;;;4952888;29;20390;-88
2023/01/24 12:54:41;;;;;;;0.13;0.13;;;18.30;49.90;;;;;;4953172;29;20371;-88
2023/01/24 12:57:20;;;;;;;0.20;0.20;;;18.50;49.60;;;;;;4936883;29;20023;-88
2023/01/24 12:59:50;;;;;;;0.27;0.27;;;18.70;49.20;;;;;;4953034;28;20115;-88
2023/01/24 13:02:37;;;;;;;0.30;0.30;;;18.70;49.60;;;;;;4954992;29;20159;-88
2023/01/24 13:05:35;;;;;;;0.30;0.30;;;18.70;49.40;;;;;;4956707;29;20066;-89
2023/01/24 13:08:23;;;;;;;0.20;0.20;;;18.70;49.70;;;;;;4956408;29;20451;-88
2023/01/24 13:11:10;;;;;;;0.20;0.20;;;18.40;49.50;;;;;;4956110;29;20034;-88
2023/01/24 13:13:41;;;;;;;0.10;0.10;;;18.10;50.30;;;;;;5015452;28;20029;-88
2023/01/24 13:16:50;;;;;;;0.20;0.20;;;18.00;50.40;;;;;;4999082;28;20022;-88
2023/01/24 13:19:51;;;;;;;0.30;0.30;;;17.90;51.00;;;;;;4999553;28;20025;-87
2023/01/24 13:22:41;;;;;;;0.20;0.20;;;17.50;51.20;;;;;;4998987;28;20018;-89
2023/01/24 13:25:45;;;;;;;0.20;0.20;;;17.40;51.10;;;;;;5015609;28;20137;-88
2023/01/24 13:28:42;;;;;;;0.17;0.17;;;17.60;51.50;;;;;;5015135;28;20049;-88
2023/01/24 13:31:33;;;;;;;0.20;0.20;;;17.50;52.00;;;;;;4985953;28;20121;-88
2023/01/24 13:34:04;;;;;;;0.30;0.30;;;17.50;51.70;;;;;;5014960;28;20026;-88
2023/01/24 13:36:36;;;;;;;0.30;0.30;;;17.50;52.20;;;;;;5016044;28;20050;-87
2023/01/24 13:39:03;;;;;;;0.30;0.30;;;17.50;52.00;;;;;;5015152;28;20025;-88
2023/01/24 13:41:29;;;;;;;0.25;0.25;;;17.60;51.90;;;;;;5014962;28;20026;-88
2023/01/24 13:43:58;;;;;;;0.17;0.17;;;17.60;52.00;;;;;;5015107;28;20024;-87
2023/01/24 13:46:44;;;;;;;0.40;0.40;;;17.60;51.80;;;;;;5015172;28;20036;-88
2023/01/24 13:49:16;;;;;;;0.40;0.40;;;17.50;52.00;;;;;;5014839;28;20076;-87